createdAt,value
2022-10-16T00:01:22.726Z,60.66
2022-10-16T00:03:51.745Z,60.77
2022-10-16T00:06:22.293Z,60.80
2022-10-16T00:08:52.148Z,60.42
2022-10-16T00:11:22.279Z,60.47
2022-10-16T00:13:52.974Z,60.16
2022-10-16T00:16:22.324Z,60.16
2022-10-16T00:18:50.291Z,60.25
2022-10-16T00:21:21.838Z,60.18
2022-10-16T00:23:53.977Z,60.23
2022-10-16T00:26:22.507Z,60.32
2022-10-16T00:28:51.347Z,59.82
2022-10-16T00:31:21.003Z,59.92
2022-10-16T00:33:49.253Z,63.51
2022-10-16T00:36:19.625Z,63.63
2022-10-16T00:38:48.238Z,63.43
2022-10-16T00:41:19.208Z,63.15
2022-10-16T00:43:48.716Z,63.19
2022-10-16T00:46:21.125Z,63.22
2022-10-16T00:48:54.769Z,63.15
2022-10-16T00:51:27.680Z,63.21
2022-10-16T00:53:57.218Z,63.36
2022-10-16T00:56:26.624Z,62.91
2022-10-16T00:58:54.695Z,62.78
2022-10-16T01:01:23.088Z,62.65
2022-10-16T01:03:51.099Z,62.73
2022-10-16T01:09:16.136Z,63.58
2022-10-16T01:11:56.392Z,62.92
2022-10-16T01:14:34.223Z,63.13
2022-10-16T01:17:07.512Z,62.97
2022-10-16T01:19:50.774Z,63.03
2022-10-16T01:22:22.104Z,62.56
2022-10-16T01:24:51.930Z,62.40
2022-10-16T01:27:26.184Z,62.02
2022-10-16T01:29:58.628Z,62.04
2022-10-16T01:32:34.791Z,61.60
2022-10-16T01:35:08.043Z,62.54
2022-10-16T01:37:40.704Z,62.03
2022-10-16T01:40:14.075Z,61.43
2022-10-16T01:42:46.622Z,61.06
2022-10-16T01:45:19.513Z,61.33
2022-10-16T01:47:48.980Z,62.21
2022-10-16T01:50:20.165Z,63.36
2022-10-16T01:52:51.843Z,63.24
2022-10-16T01:55:24.923Z,63.40
2022-10-16T01:57:55.904Z,63.14
2022-10-16T02:00:25.805Z,63.26
2022-10-16T02:02:56.263Z,63.44
2022-10-16T02:05:28.473Z,63.21
2022-10-16T02:07:58.480Z,63.24
2022-10-16T02:10:32.323Z,63.11
2022-10-16T02:13:07.577Z,63.21
2022-10-16T02:15:35.667Z,63.40
2022-10-16T02:18:04.512Z,63.85
2022-10-16T02:20:36.768Z,63.76
2022-10-16T02:23:05.729Z,64.25
2022-10-16T02:25:37.096Z,64.17
2022-10-16T02:28:13.641Z,64.36
2022-10-16T02:30:45.883Z,64.49
2022-10-16T02:33:16.463Z,64.69
2022-10-16T02:35:47.054Z,64.71
2022-10-16T02:38:16.565Z,65.10
2022-10-16T02:40:45.104Z,64.86
2022-10-16T02:43:15.186Z,65.15
2022-10-16T02:45:43.141Z,65.31
2022-10-16T02:48:11.500Z,65.51
2022-10-16T02:50:39.507Z,65.59
2022-10-16T02:53:07.461Z,65.92
2022-10-16T02:55:35.477Z,65.73
2022-10-16T02:58:03.510Z,65.88
2022-10-16T03:00:32.934Z,66.51
2022-10-16T03:03:01.016Z,66.50
2022-10-16T03:05:29.079Z,66.61
2022-10-16T03:07:57.073Z,66.61
2022-10-16T03:10:25.133Z,66.71
2022-10-16T03:12:53.104Z,66.43
2022-10-16T03:15:21.331Z,66.46
2022-10-16T03:17:50.677Z,67.10
2022-10-16T03:20:18.601Z,66.84
2022-10-16T03:22:46.605Z,66.54
2022-10-16T03:25:14.827Z,66.92
2022-10-16T03:27:42.787Z,66.94
2022-10-16T03:30:12.065Z,67.12
2022-10-16T03:32:40.074Z,66.85
2022-10-16T03:35:10.242Z,67.72
2022-10-16T03:37:38.365Z,67.04
2022-10-16T03:40:07.044Z,66.89
2022-10-16T03:42:34.997Z,66.63
2022-10-16T03:45:03.084Z,66.42
2022-10-16T03:47:31.064Z,66.42
2022-10-16T03:49:59.122Z,66.36
2022-10-16T03:52:28.546Z,66.73
2022-10-16T03:54:56.786Z,66.75
2022-10-16T03:57:25.048Z,66.48
2022-10-16T03:59:53.349Z,66.17
2022-10-16T04:02:21.319Z,66.60
2022-10-16T04:04:49.335Z,66.15
2022-10-16T04:07:17.335Z,66.06
2022-10-16T04:09:46.774Z,66.03
2022-10-16T04:12:14.756Z,65.97
2022-10-16T04:14:42.805Z,65.49
2022-10-16T04:17:10.787Z,65.45
2022-10-16T04:19:38.801Z,65.30
2022-10-16T04:22:06.850Z,65.67
2022-10-16T04:24:34.790Z,65.35
2022-10-16T04:27:04.226Z,65.31
2022-10-16T04:29:32.286Z,65.32
2022-10-16T04:32:00.268Z,64.96
2022-10-16T04:34:28.211Z,65.15
2022-10-16T04:36:56.423Z,65.38
2022-10-16T04:39:24.450Z,65.47
2022-10-16T04:41:52.474Z,65.52
2022-10-16T04:44:21.867Z,65.45
2022-10-16T04:46:49.934Z,65.33
2022-10-16T04:49:17.904Z,65.59
2022-10-16T04:51:45.878Z,66.35
2022-10-16T04:54:13.928Z,66.48
2022-10-16T04:56:47.661Z,66.68
2022-10-16T04:59:16.210Z,67.04
2022-10-16T05:01:45.741Z,66.92
2022-10-16T05:04:16.006Z,67.27
2022-10-16T05:06:44.577Z,66.99
2022-10-16T05:09:12.546Z,67.21
2022-10-16T05:11:40.504Z,67.38
2022-10-16T05:14:08.530Z,67.84
2022-10-16T05:16:36.515Z,67.78
2022-10-16T05:21:53.890Z,67.69
2022-10-16T05:24:21.882Z,67.57
2022-10-16T05:26:50.068Z,67.68
2022-10-16T05:29:17.992Z,68.09
2022-10-16T05:31:45.963Z,67.87
2022-10-16T05:34:15.356Z,67.93
2022-10-16T05:36:43.392Z,67.92
2022-10-16T05:39:11.334Z,68.05
2022-10-16T05:41:39.358Z,68.43
2022-10-16T05:44:07.687Z,68.45
2022-10-16T05:46:35.859Z,68.17
2022-10-16T05:49:04.091Z,68.17
2022-10-16T05:51:33.496Z,68.23
2022-10-16T05:54:01.444Z,68.34
2022-10-16T05:56:29.656Z,69.10
2022-10-16T05:58:57.781Z,68.59
2022-10-16T06:01:26.092Z,68.56
2022-10-16T06:03:55.016Z,68.75
2022-10-16T06:06:27.554Z,68.55
2022-10-16T06:08:58.335Z,68.52
2022-10-16T06:11:28.036Z,68.50
2022-10-16T06:13:57.630Z,68.46
2022-10-16T06:16:26.659Z,68.45
2022-10-16T06:18:56.833Z,68.53
2022-10-16T06:21:26.810Z,68.84
2022-10-16T06:23:56.846Z,69.13
2022-10-16T06:26:26.404Z,69.04
2022-10-16T06:28:56.072Z,68.66
2022-10-16T06:31:28.317Z,68.40
2022-10-16T06:33:57.235Z,68.54
2022-10-16T06:36:26.441Z,68.25
2022-10-16T06:38:54.510Z,67.99
2022-10-16T06:41:25.036Z,68.22
2022-10-16T06:43:53.291Z,68.58
2022-10-16T06:46:23.725Z,68.67
2022-10-16T06:48:51.965Z,68.88
2022-10-16T06:51:21.667Z,69.48
2022-10-16T06:54:06.389Z,68.95
2022-10-16T06:56:36.325Z,69.50
2022-10-16T06:59:05.107Z,68.73
2022-10-16T07:01:33.635Z,67.91
2022-10-16T07:04:03.016Z,67.15
2022-10-16T07:06:34.043Z,66.59
2022-10-16T07:09:04.382Z,66.49
2022-10-16T07:11:32.452Z,66.32
2022-10-16T07:14:01.749Z,66.01
2022-10-16T07:16:31.415Z,65.53
2022-10-16T07:19:01.080Z,65.85
2022-10-16T07:21:31.071Z,66.29
2022-10-16T07:24:02.256Z,65.18
2022-10-16T07:26:32.925Z,65.65
2022-10-16T07:29:02.847Z,64.78
2022-10-16T07:31:31.189Z,63.87
2022-10-16T07:34:00.790Z,63.36
2022-10-16T07:36:28.973Z,62.88
2022-10-16T07:38:59.788Z,63.38
2022-10-16T07:41:28.635Z,62.19
2022-10-16T07:43:57.520Z,61.56
2022-10-16T07:46:26.892Z,61.26
2022-10-16T07:48:55.034Z,61.64
2022-10-16T07:51:24.581Z,60.22
2022-10-16T07:53:53.202Z,60.23
2022-10-16T07:56:22.229Z,59.95
2022-10-16T07:58:51.434Z,59.82
2022-10-16T08:01:20.369Z,59.96
2022-10-16T08:03:51.665Z,59.49
2022-10-16T08:06:23.474Z,59.40
2022-10-16T08:08:55.027Z,59.44
2022-10-16T08:11:23.025Z,59.57
2022-10-16T08:13:51.064Z,59.24
2022-10-16T08:16:19.120Z,59.45
2022-10-16T08:18:47.140Z,59.57
2022-10-16T08:21:20.491Z,59.07
2022-10-16T08:23:54.516Z,58.88
2022-10-16T08:26:26.636Z,59.47
2022-10-16T08:28:54.683Z,59.01
2022-10-16T08:31:23.669Z,58.98
2022-10-16T08:33:52.405Z,58.84
2022-10-16T08:36:21.871Z,58.89
2022-10-16T08:38:51.682Z,58.32
2022-10-16T08:41:49.315Z,57.83
2022-10-16T08:44:38.247Z,57.26
2022-10-16T08:47:19.503Z,57.64
2022-10-16T08:49:57.562Z,57.51
2022-10-16T08:52:31.065Z,57.54
2022-10-16T08:54:59.438Z,57.00
2022-10-16T08:57:28.592Z,56.76
2022-10-16T09:00:01.340Z,56.40
2022-10-16T09:02:34.660Z,55.33
2022-10-16T09:05:23.863Z,55.95
2022-10-16T09:08:04.616Z,55.96
2022-10-16T09:10:46.686Z,56.61
2022-10-16T09:13:21.963Z,56.15
2022-10-16T09:15:55.653Z,56.16
2022-10-16T09:18:32.793Z,55.62
2022-10-16T09:21:09.461Z,55.57
2022-10-16T09:23:40.111Z,56.34
2022-10-16T09:26:14.003Z,56.74
2022-10-16T09:28:42.395Z,56.27
2022-10-16T09:31:17.540Z,55.32
2022-10-16T09:33:47.779Z,55.39
2022-10-16T09:36:16.286Z,55.05
2022-10-16T09:38:45.797Z,55.64
2022-10-16T09:41:20.111Z,53.87
2022-10-16T09:43:55.810Z,54.00
2022-10-16T09:46:28.349Z,53.60
2022-10-16T09:48:58.352Z,53.87
2022-10-16T09:51:28.562Z,54.86
2022-10-16T09:54:00.212Z,53.63
2022-10-16T09:56:30.912Z,53.55
2022-10-16T09:59:00.881Z,53.63
2022-10-16T10:01:33.686Z,54.69
2022-10-16T10:04:04.605Z,53.67
2022-10-16T10:06:35.258Z,52.88
2022-10-16T10:09:18.234Z,52.58
2022-10-16T10:11:50.117Z,53.33
2022-10-16T10:14:26.977Z,53.80
2022-10-16T10:17:10.575Z,53.24
2022-10-16T10:19:43.278Z,53.16
2022-10-16T10:22:25.497Z,52.70
2022-10-16T10:25:15.169Z,52.13
2022-10-16T10:27:54.131Z,52.40
2022-10-16T10:30:26.623Z,51.69
2022-10-16T10:33:12.226Z,51.74
2022-10-16T10:35:47.330Z,51.70
2022-10-16T10:38:29.348Z,51.34
2022-10-16T10:41:15.900Z,52.42
2022-10-16T10:43:57.232Z,51.22
2022-10-16T10:46:34.128Z,51.13
2022-10-16T10:49:38.538Z,51.18
2022-10-16T10:52:25.931Z,51.45
2022-10-16T10:55:02.603Z,50.33
2022-10-16T10:57:39.539Z,50.44
2022-10-16T11:00:22.541Z,51.11
2022-10-16T11:03:01.685Z,51.51
2022-10-16T11:05:44.550Z,50.23
2022-10-16T11:08:19.512Z,52.01
2022-10-16T11:10:55.428Z,50.54
2022-10-16T11:13:32.911Z,49.76
2022-10-16T11:16:04.971Z,49.42
2022-10-16T11:18:42.477Z,50.61
2022-10-16T11:21:15.065Z,49.38
2022-10-16T11:23:47.348Z,48.72
2022-10-16T11:26:20.937Z,49.26
2022-10-16T11:28:52.878Z,49.60
2022-10-16T11:31:31.062Z,49.08
2022-10-16T11:34:05.138Z,50.40
2022-10-16T11:36:38.690Z,48.99
2022-10-16T11:39:20.573Z,49.08
2022-10-16T11:41:52.596Z,50.04
2022-10-16T11:44:50.417Z,49.64
2022-10-16T11:47:53.762Z,49.71
2022-10-16T11:50:24.922Z,49.40
2022-10-16T11:52:59.277Z,49.50
2022-10-16T11:55:33.239Z,49.31
2022-10-16T11:58:06.026Z,49.05
2022-10-16T12:00:42.259Z,48.74
2022-10-16T12:03:19.743Z,49.58
2022-10-16T12:06:00.664Z,49.89
2022-10-16T12:08:29.630Z,49.58
2022-10-16T12:11:09.275Z,50.10
2022-10-16T12:13:39.262Z,49.72
2022-10-16T12:16:23.742Z,50.20
2022-10-16T12:18:52.288Z,50.06
2022-10-16T12:21:21.061Z,49.80
2022-10-16T12:23:51.428Z,49.84
2022-10-16T12:26:27.210Z,49.55
2022-10-16T12:28:56.128Z,49.95
2022-10-16T12:31:25.750Z,50.22
2022-10-16T12:34:01.779Z,50.03
2022-10-16T12:36:32.273Z,50.14
2022-10-16T12:39:01.456Z,50.33
2022-10-16T12:41:31.316Z,51.11
2022-10-16T12:44:02.267Z,50.85
2022-10-16T12:46:41.304Z,51.72
2022-10-16T12:49:25.491Z,51.36
2022-10-16T12:51:53.909Z,51.30
2022-10-16T12:54:31.242Z,51.74
2022-10-16T12:57:29.271Z,51.15
2022-10-16T13:00:05.333Z,51.64
2022-10-16T13:03:13.699Z,51.59
2022-10-16T13:05:54.105Z,51.60
2022-10-16T13:08:40.432Z,52.67
2022-10-16T13:11:19.788Z,51.28
2022-10-16T13:14:03.543Z,51.67
2022-10-16T13:16:45.021Z,51.25
2022-10-16T13:19:23.721Z,51.15
2022-10-16T13:22:04.727Z,51.54
2022-10-16T13:24:48.420Z,52.79
2022-10-16T13:27:27.772Z,53.65
2022-10-16T13:30:03.797Z,54.17
2022-10-16T13:32:33.119Z,54.17
2022-10-16T13:35:03.153Z,54.45
2022-10-16T13:37:31.248Z,55.04
2022-10-16T13:40:19.914Z,54.20
2022-10-16T13:42:48.133Z,54.51
2022-10-16T13:45:24.140Z,53.63
2022-10-16T13:47:52.296Z,54.46
2022-10-16T13:50:21.620Z,54.55
2022-10-16T13:52:50.588Z,54.98
2022-10-16T13:55:20.469Z,55.07
2022-10-16T13:57:48.489Z,54.94
2022-10-16T14:00:22.183Z,54.48
2022-10-16T14:02:57.678Z,53.92
2022-10-16T14:05:27.279Z,56.19
2022-10-16T14:07:56.858Z,55.07
2022-10-16T14:10:27.986Z,55.18
2022-10-16T14:13:01.720Z,55.29
2022-10-16T14:15:31.294Z,55.49
2022-10-16T14:18:00.718Z,55.83
2022-10-16T14:20:32.558Z,56.56
2022-10-16T14:23:02.421Z,56.96
2022-10-16T14:25:32.730Z,57.00
2022-10-16T14:28:06.671Z,56.57
2022-10-16T14:30:36.980Z,58.13
2022-10-16T14:33:07.543Z,57.67
2022-10-16T14:35:39.574Z,57.20
2022-10-16T14:38:18.268Z,57.17
2022-10-16T14:40:50.635Z,56.20
2022-10-16T14:43:23.754Z,55.49
2022-10-16T14:45:55.538Z,55.16
2022-10-16T14:48:23.972Z,54.01
2022-10-16T14:50:53.658Z,53.47
2022-10-16T14:53:21.739Z,53.02
2022-10-16T14:55:50.473Z,52.44
2022-10-16T14:58:21.128Z,52.26
2022-10-16T15:00:49.504Z,52.08
2022-10-16T15:03:17.940Z,52.05
2022-10-16T15:05:46.042Z,52.15
2022-10-16T15:08:15.778Z,52.13
2022-10-16T15:10:46.200Z,52.32
2022-10-16T15:13:14.926Z,53.35
2022-10-16T15:15:45.741Z,53.21
2022-10-16T15:18:15.792Z,53.17
2022-10-16T15:20:44.291Z,53.12
2022-10-16T15:23:18.335Z,54.29
2022-10-16T15:25:47.994Z,54.80
2022-10-16T15:28:17.199Z,54.89
2022-10-16T15:30:46.337Z,54.46
2022-10-16T15:33:16.950Z,54.29
2022-10-16T15:35:48.031Z,54.64
2022-10-16T15:38:18.583Z,54.71
2022-10-16T15:40:47.652Z,55.75
2022-10-16T15:43:15.785Z,55.88
2022-10-16T15:45:43.782Z,57.72
2022-10-16T15:48:13.923Z,57.37
2022-10-16T15:53:12.330Z,57.34
2022-10-16T15:55:41.787Z,56.85
2022-10-16T15:58:10.365Z,57.13
2022-10-16T16:00:38.711Z,57.43
2022-10-16T16:03:06.683Z,57.61
2022-10-16T16:05:36.356Z,57.12
2022-10-16T16:08:04.344Z,57.47
2022-10-16T16:10:32.377Z,57.49
2022-10-16T16:13:01.828Z,57.71
2022-10-16T16:15:29.775Z,57.96
2022-10-16T16:17:58.016Z,58.51
2022-10-16T16:20:26.011Z,58.31
2022-10-16T16:22:54.007Z,58.79
2022-10-16T16:25:22.488Z,58.46
2022-10-16T16:27:50.460Z,59.35
2022-10-16T16:30:24.777Z,59.48
2022-10-16T16:32:55.352Z,59.55
2022-10-16T16:35:23.601Z,59.79
2022-10-16T16:37:51.633Z,60.37
2022-10-16T16:40:19.717Z,60.12
2022-10-16T16:42:49.843Z,60.55
2022-10-16T16:45:19.381Z,60.92
2022-10-16T16:47:47.538Z,60.65
2022-10-16T16:50:15.755Z,60.73
2022-10-16T16:52:43.809Z,60.70
2022-10-16T16:55:11.716Z,60.69
2022-10-16T16:57:39.685Z,61.33
2022-10-16T17:00:08.779Z,61.25
2022-10-16T17:02:38.226Z,61.54
2022-10-16T17:05:06.822Z,61.88
2022-10-16T17:07:35.602Z,62.39
2022-10-16T17:10:03.887Z,62.85
2022-10-16T17:12:31.989Z,62.53
2022-10-16T17:14:59.989Z,62.39
2022-10-16T17:17:28.329Z,62.70
2022-10-16T17:19:57.803Z,62.10
2022-10-16T17:22:26.039Z,62.70
2022-10-16T17:24:54.876Z,62.85
2022-10-16T17:27:23.714Z,62.99
2022-10-16T17:29:53.253Z,63.64
2022-10-16T17:32:21.966Z,63.91
2022-10-16T17:34:49.910Z,63.58
2022-10-16T17:37:19.331Z,63.18
2022-10-16T17:39:47.398Z,63.87
2022-10-16T17:42:15.435Z,63.60
2022-10-16T17:44:43.510Z,63.10
2022-10-16T17:47:11.612Z,62.54
2022-10-16T17:49:39.975Z,62.61
2022-10-16T17:52:08.061Z,62.80
2022-10-16T17:54:37.477Z,62.68
2022-10-16T17:57:05.631Z,63.34
2022-10-16T17:59:33.812Z,62.99
2022-10-16T18:02:01.837Z,63.48
2022-10-16T18:04:30.085Z,63.04
2022-10-16T18:07:00.218Z,63.10
2022-10-16T18:09:28.967Z,63.78
2022-10-16T18:12:00.798Z,63.93
2022-10-16T18:14:30.746Z,63.69
2022-10-16T18:17:00.048Z,64.14
2022-10-16T18:19:28.855Z,63.75
2022-10-16T18:21:56.998Z,63.27
2022-10-16T18:24:25.881Z,63.56
2022-10-16T18:26:56.905Z,63.38
2022-10-16T18:29:27.739Z,63.25
2022-10-16T18:31:56.397Z,62.95
2022-10-16T18:34:26.881Z,63.01
2022-10-16T18:36:55.221Z,63.32
2022-10-16T18:39:24.818Z,63.79
2022-10-16T18:41:55.224Z,63.93
2022-10-16T18:44:23.267Z,64.29
2022-10-16T18:46:57.042Z,64.28
2022-10-16T18:49:26.367Z,64.06
2022-10-16T18:51:56.809Z,63.91
2022-10-16T18:54:25.841Z,63.71
2022-10-16T18:56:54.197Z,64.45
2022-10-16T18:59:22.535Z,64.16
2022-10-16T19:01:52.637Z,63.80
2022-10-16T19:04:22.459Z,64.20
2022-10-16T19:06:52.882Z,64.80
2022-10-16T19:09:23.334Z,64.45
2022-10-16T19:14:25.249Z,64.50
2022-10-16T19:16:54.682Z,64.84
2022-10-16T19:19:23.851Z,64.90
2022-10-16T19:21:56.540Z,65.12
2022-10-16T19:24:24.739Z,65.37
2022-10-16T19:26:52.774Z,65.64
2022-10-16T19:29:20.866Z,65.38
2022-10-16T19:31:48.827Z,65.80
2022-10-16T19:34:18.135Z,67.18
2022-10-16T19:36:46.287Z,67.24
2022-10-16T19:39:16.786Z,66.63
2022-10-16T19:41:45.086Z,67.82
2022-10-16T19:44:15.455Z,68.04
2022-10-16T19:46:44.570Z,68.09
2022-10-16T19:49:15.043Z,68.22
2022-10-16T19:51:47.190Z,68.08
2022-10-16T19:54:15.485Z,68.95
2022-10-16T19:56:45.273Z,68.84
2022-10-16T19:59:16.396Z,69.20
2022-10-16T20:01:44.718Z,68.28
2022-10-16T20:04:13.014Z,68.18
2022-10-16T20:06:41.505Z,68.43
2022-10-16T20:09:11.252Z,69.09
2022-10-16T20:11:39.484Z,69.13
2022-10-16T20:14:08.273Z,69.46
2022-10-16T20:16:36.545Z,69.88
2022-10-16T20:19:05.523Z,70.05
2022-10-16T20:21:36.884Z,69.89
2022-10-16T20:24:06.614Z,71.08
2022-10-16T20:26:36.882Z,70.73
2022-10-16T20:29:05.707Z,70.90
2022-10-16T20:31:35.261Z,70.97
2022-10-16T20:34:05.577Z,70.87
2022-10-16T20:36:34.382Z,70.25
2022-10-16T20:39:02.940Z,70.63
2022-10-16T20:41:31.035Z,70.99
2022-10-16T20:44:00.530Z,70.79
2022-10-16T20:46:29.771Z,70.84
2022-10-16T20:49:06.170Z,71.83
2022-10-16T20:51:45.606Z,73.98
2022-10-16T20:54:13.645Z,75.33
2022-10-16T20:56:42.567Z,75.29
2022-10-16T20:59:13.479Z,75.76
2022-10-16T21:01:41.881Z,74.68
2022-10-16T21:04:10.440Z,73.75
2022-10-16T21:06:40.613Z,72.39
2022-10-16T21:09:09.286Z,71.78
2022-10-16T21:11:38.102Z,71.65
2022-10-16T21:14:08.912Z,71.89
2022-10-16T21:16:38.371Z,72.32
2022-10-16T21:19:06.572Z,75.26
2022-10-16T21:21:37.936Z,75.46
2022-10-16T21:24:07.266Z,74.10
2022-10-16T21:26:35.372Z,73.78
2022-10-16T21:29:05.901Z,72.77
2022-10-16T21:31:34.628Z,71.95
2022-10-16T21:34:04.097Z,71.37
2022-10-16T21:36:34.023Z,71.44
2022-10-16T21:39:03.390Z,72.35
2022-10-16T21:41:32.387Z,72.78
2022-10-16T21:44:00.974Z,71.76
2022-10-16T21:46:31.758Z,71.50
2022-10-16T21:49:01.516Z,71.38
2022-10-16T21:51:33.860Z,71.18
2022-10-16T21:54:02.630Z,71.91
2022-10-16T21:56:31.081Z,71.54
2022-10-16T21:58:59.540Z,71.78
2022-10-16T22:01:28.853Z,72.44
2022-10-16T22:03:56.997Z,72.50
2022-10-16T22:06:27.625Z,72.70
2022-10-16T22:08:59.743Z,72.81
2022-10-16T22:11:31.329Z,72.43
2022-10-16T22:13:59.519Z,72.52
2022-10-16T22:16:28.027Z,72.36
2022-10-16T22:18:58.118Z,72.14
2022-10-16T22:21:26.647Z,72.34
2022-10-16T22:23:54.899Z,72.88
2022-10-16T22:26:24.216Z,72.53
2022-10-16T22:28:52.251Z,72.72
2022-10-16T22:31:21.692Z,72.72
2022-10-16T22:33:49.660Z,72.63
2022-10-16T22:36:17.671Z,73.44
2022-10-16T22:38:45.621Z,72.81
2022-10-16T22:41:15.604Z,72.70
2022-10-16T22:43:48.149Z,73.21
2022-10-16T22:46:18.102Z,72.94
2022-10-16T22:48:46.826Z,72.97
2022-10-16T22:51:16.917Z,73.52
2022-10-16T22:53:46.508Z,73.57
2022-10-16T22:56:15.866Z,73.25
2022-10-16T22:58:45.602Z,73.73
2022-10-16T23:01:16.165Z,73.73
2022-10-16T23:03:44.198Z,73.21
2022-10-16T23:06:12.630Z,73.80
2022-10-16T23:08:40.829Z,73.83
2022-10-16T23:11:10.326Z,73.20
2022-10-16T23:13:39.008Z,72.75
2022-10-16T23:16:09.076Z,73.15
2022-10-16T23:18:37.036Z,72.65
2022-10-16T23:21:09.940Z,74.52
2022-10-16T23:23:38.951Z,75.36
2022-10-16T23:26:11.123Z,74.76
2022-10-16T23:28:39.866Z,73.99
2022-10-16T23:31:09.902Z,74.80
2022-10-16T23:33:38.742Z,74.08
2022-10-16T23:36:08.600Z,73.61
2022-10-16T23:38:36.701Z,72.19
2022-10-16T23:41:04.868Z,71.84
2022-10-16T23:43:32.937Z,71.68
2022-10-16T23:46:00.948Z,72.83
2022-10-16T23:48:30.876Z,73.06
2022-10-16T23:50:59.184Z,72.93
2022-10-16T23:53:27.940Z,72.90
2022-10-16T23:55:55.918Z,72.13
2022-10-16T23:58:24.145Z,71.66
